sensor_id;sensor_type;location;lat;lon;timestamp;pressure;altitude;pressure_sealevel;temperature;humidity
64336;BME280;50672;53.362;-6.240;2023-02-28T00:01:12;103751.22;;;7.94;67.54
64336;BME280;50672;53.362;-6.240;2023-02-28T00:03:39;103754.81;;;7.94;67.83
64336;BME280;50672;53.362;-6.240;2023-02-28T00:06:07;103761.09;;;7.95;68.04
64336;BME280;50672;53.362;-6.240;2023-02-28T00:08:36;103757.44;;;7.96;68.18
64336;BME280;50672;53.362;-6.240;2023-02-28T00:11:11;103743.06;;;7.94;68.29
64336;BME280;50672;53.362;-6.240;2023-02-28T00:13:42;103754.72;;;7.96;68.24
64336;BME280;50672;53.362;-6.240;2023-02-28T00:16:12;103758.47;;;7.93;68.43
64336;BME280;50672;53.362;-6.240;2023-02-28T00:18:40;103763.03;;;7.93;68.64
64336;BME280;50672;53.362;-6.240;2023-02-28T00:21:07;103759.53;;;7.91;68.63
64336;BME280;50672;53.362;-6.240;2023-02-28T00:23:34;103762.16;;;7.92;69.10
64336;BME280;50672;53.362;-6.240;2023-02-28T00:26:01;103754.00;;;7.92;69.31
64336;BME280;50672;53.362;-6.240;2023-02-28T00:28:28;103766.53;;;7.95;69.66
64336;BME280;50672;53.362;-6.240;2023-02-28T00:30:55;103762.78;;;7.97;69.49
64336;BME280;50672;53.362;-6.240;2023-02-28T00:33:24;103763.66;;;7.98;69.66
64336;BME280;50672;53.362;-6.240;2023-02-28T00:35:50;103769.97;;;7.98;69.90
64336;BME280;50672;53.362;-6.240;2023-02-28T00:38:17;103773.38;;;8.02;70.08
64336;BME280;50672;53.362;-6.240;2023-02-28T00:40:44;103772.50;;;8.01;70.15
64336;BME280;50672;53.362;-6.240;2023-02-28T00:43:11;103780.56;;;8.03;70.30
64336;BME280;50672;53.362;-6.240;2023-02-28T00:45:38;103777.13;;;7.99;70.59
64336;BME280;50672;53.362;-6.240;2023-02-28T00:48:05;103787.03;;;8.00;70.80
64336;BME280;50672;53.362;-6.240;2023-02-28T00:50:32;103777.13;;;7.99;71.08
64336;BME280;50672;53.362;-6.240;2023-02-28T00:52:59;103774.66;;;7.95;71.15
64336;BME280;50672;53.362;-6.240;2023-02-28T00:55:26;103774.59;;;7.96;71.52
64336;BME280;50672;53.362;-6.240;2023-02-28T00:57:52;103776.44;;;7.96;71.49
64336;BME280;50672;53.362;-6.240;2023-02-28T01:00:19;103771.78;;;7.98;71.78
64336;BME280;50672;53.362;-6.240;2023-02-28T01:02:46;103771.78;;;7.98;71.86
64336;BME280;50672;53.362;-6.240;2023-02-28T01:05:13;103776.25;;;7.99;71.96
64336;BME280;50672;53.362;-6.240;2023-02-28T01:07:40;103779.78;;;8.01;72.19
64336;BME280;50672;53.362;-6.240;2023-02-28T01:10:07;103781.50;;;8.02;72.39
64336;BME280;50672;53.362;-6.240;2023-02-28T01:12:34;103782.50;;;8.01;72.56
64336;BME280;50672;53.362;-6.240;2023-02-28T01:15:01;103779.84;;;7.99;72.76
64336;BME280;50672;53.362;-6.240;2023-02-28T01:17:28;103785.34;;;7.98;72.61
64336;BME280;50672;53.362;-6.240;2023-02-28T01:19:55;103786.31;;;7.97;72.82
64336;BME280;50672;53.362;-6.240;2023-02-28T01:22:22;103788.16;;;7.96;72.65
64336;BME280;50672;53.362;-6.240;2023-02-28T01:24:49;103784.66;;;7.94;72.98
64336;BME280;50672;53.362;-6.240;2023-02-28T01:27:16;103779.31;;;7.93;72.78
64336;BME280;50672;53.362;-6.240;2023-02-28T01:29:42;103775.63;;;7.94;73.15
64336;BME280;50672;53.362;-6.240;2023-02-28T01:32:09;103781.03;;;7.94;73.30
64336;BME280;50672;53.362;-6.240;2023-02-28T01:34:36;103775.72;;;7.92;72.95
64336;BME280;50672;53.362;-6.240;2023-02-28T01:37:03;103783.94;;;7.91;73.09
64336;BME280;50672;53.362;-6.240;2023-02-28T01:39:30;103778.41;;;7.92;73.00
64336;BME280;50672;53.362;-6.240;2023-02-28T01:41:57;103781.13;;;7.92;73.08
64336;BME280;50672;53.362;-6.240;2023-02-28T01:47:29;103778.41;;;7.92;73.05
64336;BME280;50672;53.362;-6.240;2023-02-28T01:49:57;103783.84;;;7.92;72.95
64336;BME280;50672;53.362;-6.240;2023-02-28T01:52:25;103778.50;;;7.91;72.92
64336;BME280;50672;53.362;-6.240;2023-02-28T01:54:55;103773.09;;;7.91;73.05
64336;BME280;50672;53.362;-6.240;2023-02-28T01:57:26;103770.47;;;7.89;72.89
64336;BME280;50672;53.362;-6.240;2023-02-28T01:59:59;103777.88;;;7.85;72.80
64336;BME280;50672;53.362;-6.240;2023-02-28T02:02:27;103770.81;;;7.83;72.81
64336;BME280;50672;53.362;-6.240;2023-02-28T02:05:03;103779.97;;;7.80;72.74
64336;BME280;50672;53.362;-6.240;2023-02-28T02:07:37;103779.97;;;7.80;72.84
64336;BME280;50672;53.362;-6.240;2023-02-28T02:10:15;103775.25;;;7.84;72.74
64336;BME280;50672;53.362;-6.240;2023-02-28T02:12:55;103784.97;;;7.88;72.75
64336;BME280;50672;53.362;-6.240;2023-02-28T02:25:45;103781.03;;;7.94;72.46
64336;BME280;50672;53.362;-6.240;2023-02-28T02:28:46;103782.03;;;7.93;72.69
64336;BME280;50672;53.362;-6.240;2023-02-28T02:36:46;103789.28;;;7.92;72.45
64336;BME280;50672;53.362;-6.240;2023-02-28T02:42:15;103775.97;;;7.87;72.32
64336;BME280;50672;53.362;-6.240;2023-02-28T02:44:47;103774.22;;;7.86;72.26
64336;BME280;50672;53.362;-6.240;2023-02-28T02:47:18;103775.16;;;7.85;72.36
64336;BME280;50672;53.362;-6.240;2023-02-28T02:49:50;103776.13;;;7.84;72.58
64336;BME280;50672;53.362;-6.240;2023-02-28T02:52:21;103773.44;;;7.84;72.52
64336;BME280;50672;53.362;-6.240;2023-02-28T02:54:49;103777.97;;;7.84;72.56
64336;BME280;50672;53.362;-6.240;2023-02-28T02:57:40;103779.97;;;7.80;72.40
64336;BME280;50672;53.362;-6.240;2023-02-28T03:00:12;103771.94;;;7.79;72.38
64336;BME280;50672;53.362;-6.240;2023-02-28T03:02:40;103778.38;;;7.76;72.48
64336;BME280;50672;53.362;-6.240;2023-02-28T03:05:14;103771.94;;;7.79;72.59
64336;BME280;50672;53.362;-6.240;2023-02-28T03:07:44;103774.56;;;7.80;72.47
64336;BME280;50672;53.362;-6.240;2023-02-28T03:18:57;103770.81;;;7.83;73.05
64336;BME280;50672;53.362;-6.240;2023-02-28T03:24:17;103775.50;;;7.79;73.20
64336;BME280;50672;53.362;-6.240;2023-02-28T03:26:52;103776.44;;;7.78;73.14
64336;BME280;50672;53.362;-6.240;2023-02-28T03:29:34;103773.75;;;7.78;73.17
64336;BME280;50672;53.362;-6.240;2023-02-28T03:32:27;103777.34;;;7.79;73.20
64336;BME280;50672;53.362;-6.240;2023-02-28T03:37:35;103786.53;;;7.76;73.39
64336;BME280;50672;53.362;-6.240;2023-02-28T03:40:11;103787.38;;;7.77;73.35
64336;BME280;50672;53.362;-6.240;2023-02-28T03:42:42;103783.97;;;7.73;73.71
64336;BME280;50672;53.362;-6.240;2023-02-28T03:45:15;103783.06;;;7.73;73.46
64336;BME280;50672;53.362;-6.240;2023-02-28T03:48:10;103791.22;;;7.73;73.61
64336;BME280;50672;53.362;-6.240;2023-02-28T03:50:39;103785.63;;;7.76;73.52
64336;BME280;50672;53.362;-6.240;2023-02-28T03:53:25;103789.16;;;7.78;73.58
64336;BME280;50672;53.362;-6.240;2023-02-28T03:55:57;103794.47;;;7.79;73.77
64336;BME280;50672;53.362;-6.240;2023-02-28T04:01:09;103789.78;;;7.83;73.83
64336;BME280;50672;53.362;-6.240;2023-02-28T04:03:37;103792.41;;;7.84;73.75
64336;BME280;50672;53.362;-6.240;2023-02-28T04:06:07;103790.56;;;7.85;73.81
64336;BME280;50672;53.362;-6.240;2023-02-28T04:08:39;103787.94;;;7.83;73.76
64336;BME280;50672;53.362;-6.240;2023-02-28T04:13:41;103787.06;;;7.83;73.93
64336;BME280;50672;53.362;-6.240;2023-02-28T04:16:08;103789.78;;;7.83;73.67
64336;BME280;50672;53.362;-6.240;2023-02-28T04:18:50;103794.31;;;7.82;73.77
64336;BME280;50672;53.362;-6.240;2023-02-28T04:21:16;103801.59;;;7.82;73.86
64336;BME280;50672;53.362;-6.240;2023-02-28T04:23:47;103805.16;;;7.82;73.81
64336;BME280;50672;53.362;-6.240;2023-02-28T04:26:13;103807.88;;;7.82;73.85
64336;BME280;50672;53.362;-6.240;2023-02-28T04:28:40;103805.25;;;7.81;74.05
64336;BME280;50672;53.362;-6.240;2023-02-28T04:31:07;103804.28;;;7.82;74.04
64336;BME280;50672;53.362;-6.240;2023-02-28T04:33:34;103809.81;;;7.80;74.25
64336;BME280;50672;53.362;-6.240;2023-02-28T04:36:03;103807.09;;;7.80;74.03
64336;BME280;50672;53.362;-6.240;2023-02-28T04:38:33;103806.38;;;7.77;74.29
64336;BME280;50672;53.362;-6.240;2023-02-28T04:41:00;103807.31;;;7.76;74.35
64336;BME280;50672;53.362;-6.240;2023-02-28T04:43:28;103814.66;;;7.74;74.08
64336;BME280;50672;53.362;-6.240;2023-02-28T04:45:58;103819.22;;;7.73;74.04
64336;BME280;50672;53.362;-6.240;2023-02-28T04:48:32;103820.88;;;7.76;74.10
64336;BME280;50672;53.362;-6.240;2023-02-28T04:51:07;103823.66;;;7.74;74.11
64336;BME280;50672;53.362;-6.240;2023-02-28T04:53:35;103820.00;;;7.75;74.30
64336;BME280;50672;53.362;-6.240;2023-02-28T04:56:03;103822.63;;;7.77;74.29
64336;BME280;50672;53.362;-6.240;2023-02-28T04:58:29;103827.19;;;7.76;74.23
64336;BME280;50672;53.362;-6.240;2023-02-28T05:01:30;103831.81;;;7.74;74.53
64336;BME280;50672;53.362;-6.240;2023-02-28T05:03:59;103836.38;;;7.74;74.96
64336;BME280;50672;53.362;-6.240;2023-02-28T05:06:27;103848.81;;;7.78;75.35
64336;BME280;50672;53.362;-6.240;2023-02-28T05:08:54;103845.34;;;7.74;75.29
64336;BME280;50672;53.362;-6.240;2023-02-28T05:11:24;103845.69;;;7.68;75.52
64336;BME280;50672;53.362;-6.240;2023-02-28T05:13:52;103838.75;;;7.62;75.71
64336;BME280;50672;53.362;-6.240;2023-02-28T05:16:20;103849.97;;;7.55;76.00
64336;BME280;50672;53.362;-6.240;2023-02-28T05:18:47;103848.38;;;7.50;75.96
64336;BME280;50672;53.362;-6.240;2023-02-28T05:23:46;103848.06;;;7.39;76.56
64336;BME280;50672;53.362;-6.240;2023-02-28T05:26:13;103853.66;;;7.36;76.58
64336;BME280;50672;53.362;-6.240;2023-02-28T05:28:40;103853.16;;;7.28;76.59
64336;BME280;50672;53.362;-6.240;2023-02-28T05:31:10;103844.25;;;7.26;76.86
64336;BME280;50672;53.362;-6.240;2023-02-28T05:33:37;103855.22;;;7.23;77.00
64336;BME280;50672;53.362;-6.240;2023-02-28T05:36:04;103851.72;;;7.21;77.25
64336;BME280;50672;53.362;-6.240;2023-02-28T05:38:31;103850.88;;;7.18;77.47
64336;BME280;50672;53.362;-6.240;2023-02-28T05:40:58;103861.09;;;7.13;77.76
64336;BME280;50672;53.362;-6.240;2023-02-28T05:43:25;103857.41;;;7.14;77.96
64336;BME280;50672;53.362;-6.240;2023-02-28T05:45:51;103855.53;;;7.16;78.20
64336;BME280;50672;53.362;-6.240;2023-02-28T05:48:18;103857.13;;;7.21;78.34
64336;BME280;50672;53.362;-6.240;2023-02-28T05:50:45;103865.91;;;7.26;78.29
64336;BME280;50672;53.362;-6.240;2023-02-28T05:53:12;103869.41;;;7.28;78.40
64336;BME280;50672;53.362;-6.240;2023-02-28T05:55:39;103868.38;;;7.30;78.32
64336;BME280;50672;53.362;-6.240;2023-02-28T05:58:07;103868.16;;;7.35;78.55
64336;BME280;50672;53.362;-6.240;2023-02-28T06:00:37;103863.53;;;7.37;78.48
64336;BME280;50672;53.362;-6.240;2023-02-28T06:03:06;103862.56;;;7.38;78.42
64336;BME280;50672;53.362;-6.240;2023-02-28T06:05:33;103864.25;;;7.41;78.43
64336;BME280;50672;53.362;-6.240;2023-02-28T06:08:00;103866.94;;;7.41;78.59
64336;BME280;50672;53.362;-6.240;2023-02-28T06:10:27;103860.66;;;7.40;78.41
64336;BME280;50672;53.362;-6.240;2023-02-28T06:12:54;103858.81;;;7.41;78.43
64336;BME280;50672;53.362;-6.240;2023-02-28T06:15:20;103860.75;;;7.39;78.36
64336;BME280;50672;53.362;-6.240;2023-02-28T06:17:47;103861.69;;;7.38;78.40
64336;BME280;50672;53.362;-6.240;2023-02-28T06:20:14;103855.50;;;7.35;78.56
64336;BME280;50672;53.362;-6.240;2023-02-28T06:22:41;103860.91;;;7.35;78.48
64336;BME280;50672;53.362;-6.240;2023-02-28T06:25:09;103860.81;;;7.37;78.83
64336;BME280;50672;53.362;-6.240;2023-02-28T06:27:36;103865.28;;;7.38;78.64
64336;BME280;50672;53.362;-6.240;2023-02-28T06:30:03;103868.88;;;7.39;78.92
64336;BME280;50672;53.362;-6.240;2023-02-28T06:32:30;103868.88;;;7.39;78.75
64336;BME280;50672;53.362;-6.240;2023-02-28T06:34:57;103862.50;;;7.40;78.79
64336;BME280;50672;53.362;-6.240;2023-02-28T06:37:24;103869.75;;;7.39;78.85
64336;BME280;50672;53.362;-6.240;2023-02-28T06:39:54;103876.09;;;7.38;78.98
64336;BME280;50672;53.362;-6.240;2023-02-28T06:42:24;103869.91;;;7.36;78.87
64336;BME280;50672;53.362;-6.240;2023-02-28T06:44:55;103881.69;;;7.35;79.00
64336;BME280;50672;53.362;-6.240;2023-02-28T06:47:23;103879.16;;;7.32;78.77
64336;BME280;50672;53.362;-6.240;2023-02-28T06:49:50;103882.78;;;7.31;78.98
64336;BME280;50672;53.362;-6.240;2023-02-28T06:52:17;103877.38;;;7.31;79.15
64336;BME280;50672;53.362;-6.240;2023-02-28T06:54:43;103892.69;;;7.32;79.19
64336;BME280;50672;53.362;-6.240;2023-02-28T06:57:10;103897.09;;;7.34;79.02
64336;BME280;50672;53.362;-6.240;2023-02-28T06:59:37;103897.00;;;7.36;79.14
64336;BME280;50672;53.362;-6.240;2023-02-28T07:02:03;103897.88;;;7.36;79.39
64336;BME280;50672;53.362;-6.240;2023-02-28T07:04:32;103907.94;;;7.34;79.29
64336;BME280;50672;53.362;-6.240;2023-02-28T07:06:59;103905.28;;;7.33;79.11
64336;BME280;50672;53.362;-6.240;2023-02-28T07:09:26;103907.94;;;7.34;79.27
64336;BME280;50672;53.362;-6.240;2023-02-28T07:11:56;103916.06;;;7.34;79.16
64336;BME280;50672;53.362;-6.240;2023-02-28T07:14:23;103920.66;;;7.32;79.19
64336;BME280;50672;53.362;-6.240;2023-02-28T07:16:50;103918.91;;;7.31;79.33
64336;BME280;50672;53.362;-6.240;2023-02-28T07:19:16;103920.81;;;7.29;79.09
64336;BME280;50672;53.362;-6.240;2023-02-28T07:21:44;103915.56;;;7.26;79.17
64336;BME280;50672;53.362;-6.240;2023-02-28T07:24:11;103917.47;;;7.24;78.94
64336;BME280;50672;53.362;-6.240;2023-02-28T07:26:38;103922.06;;;7.22;78.63
64336;BME280;50672;53.362;-6.240;2023-02-28T07:29:05;103924.84;;;7.21;78.80
64336;BME280;50672;53.362;-6.240;2023-02-28T07:31:31;103927.56;;;7.21;78.69
64336;BME280;50672;53.362;-6.240;2023-02-28T07:33:58;103940.97;;;7.24;78.49
64336;BME280;50672;53.362;-6.240;2023-02-28T07:36:25;103932.75;;;7.25;78.58
64336;BME280;50672;53.362;-6.240;2023-02-28T07:38:52;103940.88;;;7.25;78.52
64336;BME280;50672;53.362;-6.240;2023-02-28T07:41:21;103944.50;;;7.26;78.31
64336;BME280;50672;53.362;-6.240;2023-02-28T07:43:48;103946.31;;;7.25;78.25
64336;BME280;50672;53.362;-6.240;2023-02-28T07:46:16;103941.91;;;7.23;78.21
64336;BME280;50672;53.362;-6.240;2023-02-28T07:48:44;103933.94;;;7.19;78.26
64336;BME280;50672;53.362;-6.240;2023-02-28T07:51:11;103943.09;;;7.17;78.29
64336;BME280;50672;53.362;-6.240;2023-02-28T07:53:37;103945.94;;;7.14;78.25
64336;BME280;50672;53.362;-6.240;2023-02-28T07:56:04;103952.22;;;7.14;78.00
64336;BME280;50672;53.362;-6.240;2023-02-28T07:58:32;103952.22;;;7.14;77.98
64336;BME280;50672;53.362;-6.240;2023-02-28T08:01:06;103946.34;;;7.06;77.86
64336;BME280;50672;53.362;-6.240;2023-02-28T08:03:33;103948.38;;;7.01;77.80
64336;BME280;50672;53.362;-6.240;2023-02-28T08:06:00;103949.25;;;7.01;77.48
64336;BME280;50672;53.362;-6.240;2023-02-28T08:08:28;103950.41;;;6.96;77.63
64336;BME280;50672;53.362;-6.240;2023-02-28T08:11:02;103955.97;;;6.93;77.16
64336;BME280;50672;53.362;-6.240;2023-02-28T08:13:30;103964.25;;;6.90;77.52
64336;BME280;50672;53.362;-6.240;2023-02-28T08:15:57;103953.63;;;6.85;77.06
64336;BME280;50672;53.362;-6.240;2023-02-28T08:18:24;103960.88;;;6.84;76.91
64336;BME280;50672;53.362;-6.240;2023-02-28T08:20:51;103967.03;;;6.88;76.80
64336;BME280;50672;53.362;-6.240;2023-02-28T08:23:17;103966.66;;;6.96;77.00
64336;BME280;50672;53.362;-6.240;2023-02-28T08:25:44;103964.41;;;7.06;76.67
64336;BME280;50672;53.362;-6.240;2023-02-28T08:28:11;103965.78;;;7.14;76.53
64336;BME280;50672;53.362;-6.240;2023-02-28T08:30:38;103973.63;;;7.21;76.21
64336;BME280;50672;53.362;-6.240;2023-02-28T08:33:07;103967.81;;;7.28;76.02
64336;BME280;50672;53.362;-6.240;2023-02-28T08:35:35;103969.38;;;7.34;75.73
64336;BME280;50672;53.362;-6.240;2023-02-28T08:38:02;103975.44;;;7.39;75.62
64336;BME280;50672;53.362;-6.240;2023-02-28T08:40:29;103965.25;;;7.44;75.46
64336;BME280;50672;53.362;-6.240;2023-02-28T08:42:56;103971.19;;;7.52;75.30
64336;BME280;50672;53.362;-6.240;2023-02-28T08:45:23;103972.63;;;7.60;75.17
64336;BME280;50672;53.362;-6.240;2023-02-28T08:47:50;103968.81;;;7.64;74.69
64336;BME280;50672;53.362;-6.240;2023-02-28T08:50:21;103969.56;;;7.67;74.62
64336;BME280;50672;53.362;-6.240;2023-02-28T08:52:48;103972.81;;;7.74;74.58
64336;BME280;50672;53.362;-6.240;2023-02-28T08:55:15;103974.31;;;7.80;74.17
64336;BME280;50672;53.362;-6.240;2023-02-28T08:57:42;103968.69;;;7.84;74.20
64336;BME280;50672;53.362;-6.240;2023-02-28T09:00:09;103966.69;;;7.88;73.77
64336;BME280;50672;53.362;-6.240;2023-02-28T09:02:40;103977.25;;;7.94;73.46
64336;BME280;50672;53.362;-6.240;2023-02-28T09:05:09;103975.31;;;7.96;72.98
64336;BME280;50672;53.362;-6.240;2023-02-28T09:07:36;103976.81;;;8.02;72.66
64336;BME280;50672;53.362;-6.240;2023-02-28T09:10:03;103983.94;;;8.04;72.30
64336;BME280;50672;53.362;-6.240;2023-02-28T09:12:32;103986.66;;;8.04;72.12
64336;BME280;50672;53.362;-6.240;2023-02-28T09:15:01;103979.25;;;8.08;71.77
64336;BME280;50672;53.362;-6.240;2023-02-28T09:17:28;103985.44;;;8.10;71.70
64336;BME280;50672;53.362;-6.240;2023-02-28T09:19:57;103992.47;;;8.14;71.30
64336;BME280;50672;53.362;-6.240;2023-02-28T09:22:24;103994.16;;;8.17;71.08
64336;BME280;50672;53.362;-6.240;2023-02-28T09:24:51;103996.63;;;8.21;70.70
64336;BME280;50672;53.362;-6.240;2023-02-28T09:27:18;103997.34;;;8.25;70.48
64336;BME280;50672;53.362;-6.240;2023-02-28T09:29:45;103998.88;;;8.31;70.36
64336;BME280;50672;53.362;-6.240;2023-02-28T09:32:12;103999.50;;;8.36;70.21
64336;BME280;50672;53.362;-6.240;2023-02-28T09:34:40;103999.50;;;8.36;69.52
64336;BME280;50672;53.362;-6.240;2023-02-28T09:37:07;103990.91;;;8.45;69.33
64336;BME280;50672;53.362;-6.240;2023-02-28T09:39:34;103989.59;;;8.52;69.06
64336;BME280;50672;53.362;-6.240;2023-02-28T09:42:02;103992.97;;;8.58;69.04
64336;BME280;50672;53.362;-6.240;2023-02-28T09:49:57;103998.03;;;8.81;68.09
64336;BME280;50672;53.362;-6.240;2023-02-28T09:52:30;103988.47;;;8.90;67.86
64336;BME280;50672;53.362;-6.240;2023-02-28T09:55:18;103991.13;;;8.92;67.69
64336;BME280;50672;53.362;-6.240;2023-02-28T09:57:46;103985.69;;;8.92;67.29
64336;BME280;50672;53.362;-6.240;2023-02-28T10:00:15;103985.84;;;8.88;67.31
64336;BME280;50672;53.362;-6.240;2023-02-28T10:03:10;103990.25;;;8.91;67.08
64336;BME280;50672;53.362;-6.240;2023-02-28T10:05:55;103981.56;;;8.84;66.80
64336;BME280;50672;53.362;-6.240;2023-02-28T10:08:31;103978.06;;;8.82;66.37
64336;BME280;50672;53.362;-6.240;2023-02-28T10:11:02;103985.78;;;8.90;66.17
64336;BME280;50672;53.362;-6.240;2023-02-28T10:16:21;103980.41;;;9.38;65.87
64336;BME280;50672;53.362;-6.240;2023-02-28T10:19:16;103985.97;;;9.67;65.64
64336;BME280;50672;53.362;-6.240;2023-02-28T10:21:59;103975.22;;;9.96;65.49
64336;BME280;50672;53.362;-6.240;2023-02-28T10:24:29;103976.78;;;10.30;64.99
64336;BME280;50672;53.362;-6.240;2023-02-28T10:27:06;103980.59;;;10.42;64.52
64336;BME280;50672;53.362;-6.240;2023-02-28T10:29:40;103981.22;;;10.47;63.94
64336;BME280;50672;53.362;-6.240;2023-02-28T10:32:12;103991.69;;;10.39;63.37
64336;BME280;50672;53.362;-6.240;2023-02-28T10:34:40;103995.22;;;10.55;63.22
64336;BME280;50672;53.362;-6.240;2023-02-28T10:37:07;103994.56;;;10.66;62.82
64336;BME280;50672;53.362;-6.240;2023-02-28T10:39:45;103988.53;;;10.75;62.16
64336;BME280;50672;53.362;-6.240;2023-02-28T10:42:23;103984.81;;;10.76;61.69
64336;BME280;50672;53.362;-6.240;2023-02-28T10:45:05;103989.72;;;10.86;61.50
64336;BME280;50672;53.362;-6.240;2023-02-28T10:47:34;103994.66;;;10.93;61.46
64336;BME280;50672;53.362;-6.240;2023-02-28T10:50:03;103992.13;;;10.90;60.84
64336;BME280;50672;53.362;-6.240;2023-02-28T10:52:39;103995.44;;;10.96;60.81
64336;BME280;50672;53.362;-6.240;2023-02-28T10:55:18;103994.84;;;11.05;60.70
64336;BME280;50672;53.362;-6.240;2023-02-28T10:57:46;103995.03;;;11.02;60.32
64336;BME280;50672;53.362;-6.240;2023-02-28T11:00:35;103988.03;;;10.98;60.14
64336;BME280;50672;53.362;-6.240;2023-02-28T11:03:33;103993.28;;;11.01;59.80
64336;BME280;50672;53.362;-6.240;2023-02-28T11:06:05;103989.50;;;10.89;59.51
64336;BME280;50672;53.362;-6.240;2023-02-28T11:08:32;103997.69;;;10.89;59.33
64336;BME280;50672;53.362;-6.240;2023-02-28T11:11:04;103988.53;;;10.75;59.27
64336;BME280;50672;53.362;-6.240;2023-02-28T11:13:34;103991.94;;;10.79;59.55
64336;BME280;50672;53.362;-6.240;2023-02-28T11:16:05;103993.88;;;10.91;59.43
64336;BME280;50672;53.362;-6.240;2023-02-28T11:21:25;103978.31;;;10.93;59.21
64336;BME280;50672;53.362;-6.240;2023-02-28T11:24:00;103978.47;;;11.05;59.22
64336;BME280;50672;53.362;-6.240;2023-02-28T11:26:41;103978.00;;;11.13;58.93
64336;BME280;50672;53.362;-6.240;2023-02-28T11:32:13;103981.22;;;10.90;58.86
64336;BME280;50672;53.362;-6.240;2023-02-28T11:34:43;103975.28;;;10.84;58.54
64336;BME280;50672;53.362;-6.240;2023-02-28T11:37:18;103985.53;;;10.80;58.34
64336;BME280;50672;53.362;-6.240;2023-02-28T11:39:46;103985.69;;;10.77;58.30
64336;BME280;50672;53.362;-6.240;2023-02-28T11:42:31;103986.19;;;10.55;58.57
64336;BME280;50672;53.362;-6.240;2023-02-28T11:51:12;103994.94;;;9.69;59.40
64336;BME280;50672;53.362;-6.240;2023-02-28T11:56:37;103995.28;;;9.63;60.37
64336;BME280;50672;53.362;-6.240;2023-02-28T12:02:18;103990.59;;;9.97;60.16
64336;BME280;50672;53.362;-6.240;2023-02-28T12:13:54;103967.97;;;10.99;59.35
64336;BME280;50672;53.362;-6.240;2023-02-28T12:19:41;103969.84;;;11.40;58.77
64336;BME280;50672;53.362;-6.240;2023-02-28T12:22:21;103973.94;;;11.47;58.29
64336;BME280;50672;53.362;-6.240;2023-02-28T12:27:37;103966.50;;;11.49;57.19
64336;BME280;50672;53.362;-6.240;2023-02-28T12:30:14;103964.09;;;11.44;57.26
64336;BME280;50672;53.362;-6.240;2023-02-28T12:32:46;103963.31;;;11.42;57.23
64336;BME280;50672;53.362;-6.240;2023-02-28T12:35:19;103954.25;;;11.00;56.86
64336;BME280;50672;53.362;-6.240;2023-02-28T12:37:57;103961.19;;;10.63;56.46
64336;BME280;50672;53.362;-6.240;2023-02-28T12:40:32;103960.47;;;10.45;56.47
64336;BME280;50672;53.362;-6.240;2023-02-28T12:43:04;103954.91;;;10.32;56.83
64336;BME280;50672;53.362;-6.240;2023-02-28T12:48:43;103954.28;;;10.12;56.98
64336;BME280;50672;53.362;-6.240;2023-02-28T12:51:13;103951.06;;;10.20;57.05
64336;BME280;50672;53.362;-6.240;2023-02-28T12:54:15;103950.94;;;10.52;57.18
64336;BME280;50672;53.362;-6.240;2023-02-28T12:56:50;103948.06;;;11.25;57.09
64336;BME280;50672;53.362;-6.240;2023-02-28T13:04:47;103944.34;;;10.56;55.94
64336;BME280;50672;53.362;-6.240;2023-02-28T13:07:43;103942.84;;;10.21;55.97
64336;BME280;50672;53.362;-6.240;2023-02-28T13:10:13;103945.09;;;9.99;56.33
64336;BME280;50672;53.362;-6.240;2023-02-28T13:12:48;103939.72;;;9.83;56.27
64336;BME280;50672;53.362;-6.240;2023-02-28T13:15:24;103934.19;;;9.68;56.62
64336;BME280;50672;53.362;-6.240;2023-02-28T13:17:56;103939.41;;;9.57;56.69
64336;BME280;50672;53.362;-6.240;2023-02-28T13:20:26;103937.25;;;9.48;57.00
64336;BME280;50672;53.362;-6.240;2023-02-28T13:22:55;103935.91;;;9.39;57.14
64336;BME280;50672;53.362;-6.240;2023-02-28T13:28:11;103932.78;;;9.31;57.33
64336;BME280;50672;53.362;-6.240;2023-02-28T13:33:22;103937.66;;;9.40;57.32
64336;BME280;50672;53.362;-6.240;2023-02-28T13:38:42;103933.56;;;9.33;57.31
64336;BME280;50672;53.362;-6.240;2023-02-28T13:44:20;103925.50;;;9.31;57.85
64336;BME280;50672;53.362;-6.240;2023-02-28T13:54:56;103918.22;;;9.00;58.05
64336;BME280;50672;53.362;-6.240;2023-02-28T14:02:31;103897.00;;;9.06;58.38
64336;BME280;50672;53.362;-6.240;2023-02-28T14:05:15;103902.19;;;9.11;58.52
64336;BME280;50672;53.362;-6.240;2023-02-28T14:07:45;103912.50;;;9.20;58.46
64336;BME280;50672;53.362;-6.240;2023-02-28T14:10:31;103908.22;;;9.32;58.69
64336;BME280;50672;53.362;-6.240;2023-02-28T14:13:11;103904.44;;;9.35;58.63
64336;BME280;50672;53.362;-6.240;2023-02-28T14:15:48;103908.03;;;9.35;58.66
64336;BME280;50672;53.362;-6.240;2023-02-28T14:26:32;103891.72;;;9.35;58.53
64336;BME280;50672;53.362;-6.240;2023-02-28T14:37:29;103889.63;;;9.24;58.60
64336;BME280;50672;53.362;-6.240;2023-02-28T14:39:58;103885.25;;;9.22;58.73
64336;BME280;50672;53.362;-6.240;2023-02-28T14:42:36;103902.59;;;9.19;58.66
64336;BME280;50672;53.362;-6.240;2023-02-28T14:45:21;103893.41;;;9.22;58.77
64336;BME280;50672;53.362;-6.240;2023-02-28T14:47:51;103892.63;;;9.20;58.65
64336;BME280;50672;53.362;-6.240;2023-02-28T14:50:20;103885.72;;;9.14;58.70
64336;BME280;50672;53.362;-6.240;2023-02-28T14:52:47;103889.75;;;9.07;58.70
64336;BME280;50672;53.362;-6.240;2023-02-28T14:55:17;103888.94;;;9.05;58.47
64336;BME280;50672;53.362;-6.240;2023-02-28T14:57:53;103884.81;;;8.98;58.65
64336;BME280;50672;53.362;-6.240;2023-02-28T15:02:50;103889.19;;;8.84;58.42
64336;BME280;50672;53.362;-6.240;2023-02-28T15:05:30;103887.47;;;8.83;58.51
64336;BME280;50672;53.362;-6.240;2023-02-28T15:08:13;103890.19;;;8.83;58.85
64336;BME280;50672;53.362;-6.240;2023-02-28T15:10:42;103885.78;;;8.81;58.68
64336;BME280;50672;53.362;-6.240;2023-02-28T15:13:14;103875.88;;;8.80;58.86
64336;BME280;50672;53.362;-6.240;2023-02-28T15:15:59;103878.06;;;8.73;59.16
64336;BME280;50672;53.362;-6.240;2023-02-28T15:18:57;103883.59;;;8.71;59.21
64336;BME280;50672;53.362;-6.240;2023-02-28T15:21:34;103879.28;;;8.67;59.12
64336;BME280;50672;53.362;-6.240;2023-02-28T15:24:30;103870.28;;;8.67;59.40